createdAt,value
2023-04-05T00:00:32.540Z,90.53
2023-04-05T00:03:00.312Z,90.32
2023-04-05T00:05:31.565Z,90.26
2023-04-05T00:08:00.695Z,90.33
2023-04-05T00:10:28.766Z,90.27
2023-04-05T00:12:55.848Z,89.70
2023-04-05T00:15:23.084Z,89.78
2023-04-05T00:17:50.791Z,89.73
2023-04-05T00:20:17.645Z,89.58
2023-04-05T00:22:44.961Z,89.68
2023-04-05T00:25:12.295Z,89.71
2023-04-05T00:27:39.879Z,89.78
2023-04-05T00:30:07.380Z,89.73
2023-04-05T00:32:34.545Z,90.09
2023-04-05T00:35:01.524Z,90.06
2023-04-05T00:37:29.804Z,90.02
2023-04-05T00:39:57.610Z,89.80
2023-04-05T00:42:24.642Z,89.84
2023-04-05T00:44:51.561Z,89.73
2023-04-05T00:47:18.644Z,89.70
2023-04-05T00:49:46.382Z,89.56
2023-04-05T00:52:15.133Z,89.37
2023-04-05T00:54:43.438Z,89.65
2023-04-05T00:57:11.147Z,89.54
2023-04-05T00:59:38.093Z,89.31
2023-04-05T01:02:17.210Z,88.90
2023-04-05T01:04:50.203Z,88.72
2023-04-05T01:07:31.580Z,88.84
2023-04-05T01:10:01.269Z,89.02
2023-04-05T01:12:34.957Z,88.97
2023-04-05T01:15:04.731Z,88.51
2023-04-05T01:17:36.958Z,88.48
2023-04-05T01:20:10.919Z,88.33
2023-04-05T01:23:11.506Z,87.81
2023-04-05T01:25:54.084Z,87.90
2023-04-05T01:28:52.719Z,87.70
2023-04-05T01:31:26.168Z,87.77
2023-04-05T01:34:20.215Z,87.60
2023-04-05T01:36:56.159Z,87.55
2023-04-05T01:39:24.970Z,87.68
2023-04-05T01:41:51.986Z,87.57
2023-04-05T01:44:18.848Z,87.62
2023-04-05T01:46:47.028Z,87.73
2023-04-05T01:49:13.880Z,87.98
2023-04-05T01:51:42.196Z,87.76
2023-04-05T01:54:09.529Z,87.36
2023-04-05T01:56:36.699Z,87.50
2023-04-05T01:59:04.255Z,87.50
2023-04-05T02:01:32.165Z,87.27
2023-04-05T02:03:59.302Z,87.38
2023-04-05T02:06:26.701Z,87.30
2023-04-05T02:08:53.643Z,87.21
2023-04-05T02:11:21.224Z,87.24
2023-04-05T02:13:48.233Z,86.85
2023-04-05T02:16:16.718Z,86.54
2023-04-05T02:18:51.048Z,86.72
2023-04-05T02:21:18.293Z,86.66
2023-04-05T02:23:45.177Z,86.90
2023-04-05T02:26:12.173Z,87.01
2023-04-05T02:28:39.113Z,86.89
2023-04-05T02:31:14.276Z,87.02
2023-04-05T02:33:42.616Z,86.76
2023-04-05T02:36:11.787Z,86.99
2023-04-05T02:38:39.379Z,86.74
2023-04-05T02:41:09.937Z,86.76
2023-04-05T02:43:39.066Z,86.98
2023-04-05T02:46:06.502Z,87.17
2023-04-05T02:48:38.503Z,87.04
2023-04-05T02:51:06.245Z,87.04
2023-04-05T02:53:33.190Z,87.30
2023-04-05T02:56:03.531Z,87.14
2023-04-05T02:58:32.977Z,87.12
2023-04-05T03:01:06.089Z,87.19
2023-04-05T03:03:37.498Z,87.05
2023-04-05T03:06:13.410Z,86.93
2023-04-05T03:08:49.390Z,86.77
2023-04-05T03:11:24.734Z,86.52
2023-04-05T03:13:56.553Z,86.74
2023-04-05T03:16:44.849Z,86.91
2023-04-05T03:19:29.213Z,87.02
2023-04-05T03:22:07.988Z,87.21
2023-04-05T03:24:37.120Z,87.51
2023-04-05T03:27:07.800Z,87.35
2023-04-05T03:29:49.091Z,87.44
2023-04-05T03:32:18.104Z,87.21
2023-04-05T03:34:52.006Z,87.49
2023-04-05T03:37:20.973Z,87.53
2023-04-05T03:39:58.085Z,87.54
2023-04-05T03:42:25.386Z,87.80
2023-04-05T03:44:54.108Z,87.88
2023-04-05T03:47:21.089Z,87.96
2023-04-05T03:49:48.235Z,88.29
2023-04-05T03:52:15.253Z,88.45
2023-04-05T03:54:45.063Z,88.73
2023-04-05T03:57:14.201Z,89.10
2023-04-05T03:59:42.776Z,89.56
2023-04-05T04:02:09.971Z,90.07
2023-04-05T04:04:37.085Z,90.62
2023-04-05T04:07:03.950Z,91.24
2023-04-05T04:09:31.214Z,91.53
2023-04-05T04:12:05.711Z,91.43
2023-04-05T04:14:35.446Z,91.23
2023-04-05T04:17:30.216Z,91.73
2023-04-05T04:20:26.557Z,91.96
2023-04-05T04:23:14.566Z,92.22
2023-04-05T04:26:03.103Z,92.12
2023-04-05T04:28:49.082Z,92.01
2023-04-05T04:31:18.973Z,91.49
2023-04-05T04:34:06.894Z,91.13
2023-04-05T04:36:46.739Z,91.07
2023-04-05T04:39:36.170Z,90.94
2023-04-05T04:42:38.916Z,91.67
2023-04-05T04:45:10.815Z,91.52
2023-04-05T04:47:47.452Z,91.18
2023-04-05T04:50:24.681Z,90.85
2023-04-05T04:52:51.673Z,90.39
2023-04-05T04:55:25.220Z,90.34
2023-04-05T04:57:53.654Z,89.90
2023-04-05T05:00:22.277Z,90.14
2023-04-05T05:02:51.141Z,88.99
2023-04-05T05:05:23.240Z,89.19
2023-04-05T05:07:50.802Z,89.10
2023-04-05T05:10:18.975Z,87.60
2023-04-05T05:12:46.824Z,87.86
2023-04-05T05:15:15.207Z,87.36
2023-04-05T05:17:42.219Z,87.02
2023-04-05T05:20:12.755Z,86.68
2023-04-05T05:22:46.587Z,86.45
2023-04-05T05:25:13.491Z,86.67
2023-04-05T05:27:41.420Z,85.50
2023-04-05T05:30:09.379Z,84.60
2023-04-05T05:32:36.397Z,84.71
2023-04-05T05:35:03.544Z,85.03
2023-04-05T05:37:34.096Z,84.88
2023-04-05T05:40:01.083Z,83.86
2023-04-05T05:42:28.311Z,83.41
2023-04-05T05:44:55.609Z,82.89
2023-04-05T05:47:22.453Z,82.39
2023-04-05T05:49:52.208Z,83.12
2023-04-05T05:52:19.318Z,83.69
2023-04-05T05:54:47.308Z,83.20
2023-04-05T05:57:14.382Z,81.84
2023-04-05T05:59:41.836Z,80.80
2023-04-05T06:02:10.014Z,80.32
2023-04-05T06:04:38.088Z,79.93
2023-04-05T06:07:05.218Z,78.52
2023-04-05T06:09:35.312Z,77.94
2023-04-05T06:12:02.997Z,77.90
2023-04-05T06:14:30.095Z,77.52
2023-04-05T06:16:57.650Z,77.16
2023-04-05T06:19:24.531Z,76.55
2023-04-05T06:21:51.552Z,76.19
2023-04-05T06:24:18.380Z,76.45
2023-04-05T06:26:45.472Z,75.96
2023-04-05T06:29:12.361Z,75.28
2023-04-05T06:31:41.662Z,75.19
2023-04-05T06:34:08.640Z,74.41
2023-04-05T06:36:36.057Z,74.44
2023-04-05T06:39:03.213Z,74.92
2023-04-05T06:41:30.795Z,75.16
2023-04-05T06:43:57.638Z,75.09
2023-04-05T06:46:25.297Z,74.85
2023-04-05T06:48:52.864Z,74.26
2023-04-05T06:51:20.181Z,74.07
2023-04-05T06:53:47.169Z,73.18
2023-04-05T06:56:14.041Z,70.64
2023-04-05T06:58:41.903Z,69.94
2023-04-05T07:01:08.869Z,68.63
2023-04-05T07:03:36.274Z,68.56
2023-04-05T07:06:04.353Z,68.65
2023-04-05T07:08:33.096Z,68.16
2023-04-05T07:11:00.157Z,67.69
2023-04-05T07:13:27.456Z,67.36
2023-04-05T07:16:01.161Z,67.23
2023-04-05T07:18:30.167Z,67.87
2023-04-05T07:21:02.233Z,68.87
2023-04-05T07:23:30.798Z,68.89
2023-04-05T07:26:05.255Z,67.86
2023-04-05T07:28:33.242Z,68.28
2023-04-05T07:31:00.184Z,69.41
2023-04-05T07:33:28.018Z,68.42
2023-04-05T07:35:55.768Z,69.17
2023-04-05T07:38:23.586Z,68.58
2023-04-05T07:40:50.932Z,68.92
2023-04-05T07:43:21.280Z,68.85
2023-04-05T07:45:48.379Z,69.04
2023-04-05T07:48:15.556Z,68.16
2023-04-05T07:50:47.917Z,67.71
2023-04-05T07:53:16.710Z,68.38
2023-04-05T07:55:44.192Z,68.01
2023-04-05T07:58:11.326Z,67.93
2023-04-05T08:00:38.954Z,67.68
2023-04-05T08:03:06.826Z,67.78
2023-04-05T08:05:33.832Z,68.76
2023-04-05T08:08:01.743Z,69.20
2023-04-05T08:10:28.709Z,69.68
2023-04-05T08:12:55.818Z,70.08
2023-04-05T08:15:22.780Z,70.32
2023-04-05T08:17:49.893Z,71.00
2023-04-05T08:20:17.022Z,70.79
2023-04-05T08:22:44.262Z,69.59
2023-04-05T08:25:13.695Z,69.53
2023-04-05T08:27:41.379Z,70.26
2023-04-05T08:30:09.297Z,67.46
2023-04-05T08:32:36.593Z,68.35
2023-04-05T08:35:03.849Z,69.60
2023-04-05T08:37:34.872Z,69.41
2023-04-05T08:40:03.221Z,69.31
2023-04-05T08:42:36.515Z,69.14
2023-04-05T08:45:04.886Z,69.59
2023-04-05T08:47:34.996Z,68.83
2023-04-05T08:50:03.106Z,69.49
2023-04-05T08:52:32.502Z,69.99
2023-04-05T08:54:59.611Z,70.42
2023-04-05T08:57:31.008Z,69.70
2023-04-05T09:00:01.970Z,68.40
2023-04-05T09:02:32.902Z,69.58
2023-04-05T09:05:00.365Z,68.63
2023-04-05T09:07:30.431Z,68.73
2023-04-05T09:10:00.669Z,69.01
2023-04-05T09:12:28.439Z,69.16
2023-04-05T09:14:56.110Z,68.91
2023-04-05T09:17:23.088Z,69.28
2023-04-05T09:19:50.536Z,67.29
2023-04-05T09:22:20.442Z,67.58
2023-04-05T09:24:47.912Z,67.68
2023-04-05T09:27:19.935Z,66.72
2023-04-05T09:29:57.880Z,66.58
2023-04-05T09:32:27.796Z,66.11
2023-04-05T09:34:55.642Z,63.86
2023-04-05T09:37:33.973Z,64.81
2023-04-05T09:40:06.854Z,64.92
2023-04-05T09:42:46.106Z,65.28
2023-04-05T09:45:14.982Z,65.08
2023-04-05T09:47:57.489Z,64.54
2023-04-05T09:50:24.952Z,65.10
2023-04-05T09:53:09.468Z,65.63
2023-04-05T09:55:37.063Z,64.67
2023-04-05T09:58:04.104Z,63.62
2023-04-05T10:00:34.281Z,63.63
2023-04-05T10:03:21.070Z,62.96
2023-04-05T10:05:56.069Z,62.95
2023-04-05T10:08:24.485Z,63.76
2023-04-05T10:10:54.729Z,62.96
2023-04-05T10:13:22.321Z,64.13
2023-04-05T10:15:51.338Z,63.34
2023-04-05T10:18:25.275Z,60.67
2023-04-05T10:20:54.234Z,60.05
2023-04-05T10:23:35.060Z,61.05
2023-04-05T10:26:11.286Z,61.56
2023-04-05T10:28:47.487Z,59.97
2023-04-05T10:31:37.116Z,60.03
2023-04-05T10:34:09.360Z,59.98
2023-04-05T10:36:59.880Z,60.96
2023-04-05T10:39:35.358Z,61.46
2023-04-05T10:42:34.992Z,62.20
2023-04-05T10:45:10.075Z,62.07
2023-04-05T10:47:47.669Z,61.31
2023-04-05T10:50:21.599Z,59.90
2023-04-05T10:52:49.137Z,57.52
2023-04-05T10:55:17.318Z,58.73
2023-04-05T10:57:46.266Z,59.28
2023-04-05T11:00:14.690Z,60.24
2023-04-05T11:02:42.710Z,59.93
2023-04-05T11:05:31.452Z,60.90
2023-04-05T11:08:04.904Z,61.12
2023-04-05T11:10:37.676Z,60.30
2023-04-05T11:13:07.388Z,60.87
2023-04-05T11:15:35.393Z,61.17
2023-04-05T11:18:20.748Z,60.23
2023-04-05T11:20:48.911Z,60.76
2023-04-05T11:23:18.874Z,60.45
2023-04-05T11:25:59.889Z,61.58
2023-04-05T11:28:37.338Z,61.36
2023-04-05T11:31:19.112Z,61.28
2023-04-05T11:33:55.064Z,60.81
2023-04-05T11:36:50.494Z,60.29
2023-04-05T11:39:21.352Z,59.94
2023-04-05T11:42:02.140Z,59.51
2023-04-05T11:44:39.334Z,59.04
2023-04-05T11:47:06.907Z,59.23
2023-04-05T11:49:34.462Z,59.37
2023-04-05T11:52:11.953Z,58.23
2023-04-05T11:54:39.928Z,58.20
2023-04-05T11:57:13.017Z,59.29
2023-04-05T11:59:39.953Z,60.56
2023-04-05T12:02:08.364Z,59.33
2023-04-05T12:04:36.669Z,59.07
2023-04-05T12:07:11.844Z,59.21
2023-04-05T12:10:01.590Z,58.88
2023-04-05T12:12:34.288Z,59.81
2023-04-05T12:15:03.559Z,59.46
2023-04-05T12:17:47.180Z,59.63
2023-04-05T12:20:23.921Z,59.80
2023-04-05T12:22:53.378Z,60.02
2023-04-05T12:25:20.956Z,60.28
2023-04-05T12:27:47.967Z,59.90
2023-04-05T12:30:16.702Z,60.23
2023-04-05T12:32:50.452Z,60.32
2023-04-05T12:35:18.957Z,59.02
2023-04-05T12:37:46.967Z,59.47
2023-04-05T12:40:14.445Z,60.02
2023-04-05T12:42:41.820Z,58.73
2023-04-05T12:45:13.334Z,59.59
2023-04-05T12:47:51.000Z,59.63
2023-04-05T12:50:19.769Z,58.73
2023-04-05T12:53:23.771Z,60.17
2023-04-05T12:56:01.722Z,60.74
2023-04-05T12:58:36.819Z,61.84
2023-04-05T13:01:04.610Z,62.97
2023-04-05T13:03:31.864Z,62.60
2023-04-05T13:05:58.952Z,64.30
2023-04-05T13:08:27.727Z,63.26
2023-04-05T13:10:57.191Z,62.83
2023-04-05T13:13:25.579Z,62.57
2023-04-05T13:15:52.682Z,63.26
2023-04-05T13:18:20.681Z,63.24
2023-04-05T13:20:47.808Z,62.82
2023-04-05T13:23:15.090Z,62.23
2023-04-05T13:25:45.600Z,61.64
2023-04-05T13:28:13.752Z,61.46
2023-04-05T13:30:40.915Z,61.24
2023-04-05T13:33:07.828Z,61.00
2023-04-05T13:35:34.999Z,60.55
2023-04-05T13:38:04.321Z,60.38
2023-04-05T13:40:32.297Z,60.18
2023-04-05T13:42:59.415Z,59.22
2023-04-05T13:45:26.320Z,59.52
2023-04-05T13:47:53.519Z,59.30
2023-04-05T13:50:20.653Z,59.15
2023-04-05T13:52:47.592Z,59.26
2023-04-05T13:55:15.589Z,60.49
2023-04-05T13:57:42.651Z,60.84
2023-04-05T14:00:10.334Z,60.35
2023-04-05T14:02:41.192Z,60.68
2023-04-05T14:05:09.046Z,60.10
2023-04-05T14:07:36.925Z,60.61
2023-04-05T14:10:06.352Z,60.21
2023-04-05T14:12:33.982Z,60.91
2023-04-05T14:15:01.015Z,62.08
2023-04-05T14:17:28.296Z,62.36
2023-04-05T14:19:55.470Z,64.01
2023-04-05T14:22:22.514Z,64.42
2023-04-05T14:24:49.807Z,64.81
2023-04-05T14:27:16.818Z,65.83
2023-04-05T14:29:45.890Z,66.01
2023-04-05T14:32:13.214Z,66.06
2023-04-05T14:34:40.284Z,65.88
2023-04-05T14:37:08.055Z,65.55
2023-04-05T14:39:35.041Z,65.25
2023-04-05T14:42:05.228Z,66.36
2023-04-05T14:44:32.670Z,65.70
2023-04-05T14:46:59.712Z,64.97
2023-04-05T14:49:26.833Z,65.05
2023-04-05T14:51:53.722Z,64.58
2023-04-05T14:54:20.943Z,64.25
2023-04-05T14:56:48.203Z,64.30
2023-04-05T14:59:15.534Z,64.30
2023-04-05T15:01:44.470Z,64.28
2023-04-05T15:04:12.021Z,66.09
2023-04-05T15:06:39.062Z,66.25
2023-04-05T15:09:06.076Z,66.25
2023-04-05T15:11:35.784Z,66.46
2023-04-05T15:14:02.849Z,68.25
2023-04-05T15:16:30.645Z,68.16
2023-04-05T15:18:59.320Z,68.53
2023-04-05T15:21:26.725Z,67.22
2023-04-05T15:23:53.733Z,67.58
2023-04-05T15:26:21.637Z,68.36
2023-04-05T15:28:48.753Z,69.24
2023-04-05T15:31:16.080Z,68.91
2023-04-05T15:33:43.279Z,69.34
2023-04-05T15:36:10.580Z,69.86
2023-04-05T15:38:37.810Z,70.30
2023-04-05T15:41:05.093Z,70.66
2023-04-05T15:43:33.755Z,70.76
2023-04-05T15:46:00.990Z,70.97
2023-04-05T15:48:28.087Z,70.98
2023-04-05T15:50:55.168Z,71.36
2023-04-05T15:53:22.225Z,71.25
2023-04-05T15:55:49.492Z,70.46
2023-04-05T15:58:16.445Z,71.02
2023-04-05T16:00:43.908Z,70.86
2023-04-05T16:03:11.844Z,71.13
2023-04-05T16:05:39.048Z,70.58
2023-04-05T16:08:06.599Z,71.30
2023-04-05T16:10:33.513Z,71.95
2023-04-05T16:13:00.720Z,71.57
2023-04-05T16:15:28.719Z,70.94
2023-04-05T16:17:56.284Z,71.10
2023-04-05T16:20:23.766Z,71.52
2023-04-05T16:22:52.227Z,72.24
2023-04-05T16:25:19.601Z,72.37
2023-04-05T16:27:46.464Z,72.13
2023-04-05T16:30:13.737Z,72.88
2023-04-05T16:32:41.041Z,73.26
2023-04-05T16:35:08.492Z,73.42
2023-04-05T16:37:35.532Z,73.93
2023-04-05T16:40:04.495Z,73.90
2023-04-05T16:42:31.640Z,74.08
2023-04-05T16:44:59.023Z,74.29
2023-04-05T16:47:26.233Z,74.61
2023-04-05T16:49:53.629Z,74.38
2023-04-05T16:52:22.258Z,74.53
2023-04-05T16:54:49.502Z,74.36
2023-04-05T16:57:16.545Z,74.93
2023-04-05T16:59:43.775Z,74.74
2023-04-05T17:02:10.990Z,74.90
2023-04-05T17:04:38.211Z,74.78
2023-04-05T17:07:05.868Z,74.90
2023-04-05T17:09:33.513Z,75.21
2023-04-05T17:12:02.028Z,75.26
2023-04-05T17:14:29.337Z,75.53
2023-04-05T17:16:56.908Z,75.44
2023-04-05T17:19:23.799Z,75.79
2023-04-05T17:21:51.524Z,75.74
2023-04-05T17:24:21.585Z,75.96
2023-04-05T17:26:48.726Z,76.03
2023-04-05T17:29:17.654Z,75.97
2023-04-05T17:31:45.172Z,75.87
2023-04-05T17:34:14.999Z,75.69
2023-04-05T17:36:43.744Z,75.93
2023-04-05T17:39:13.714Z,75.86
2023-04-05T17:41:40.998Z,75.72
2023-04-05T17:44:08.551Z,75.55
2023-04-05T17:46:42.672Z,76.12
2023-04-05T17:49:11.939Z,75.83
2023-04-05T17:51:39.171Z,75.71
2023-04-05T17:54:09.124Z,75.97
2023-04-05T17:56:36.469Z,75.91
2023-04-05T17:59:04.297Z,76.26
2023-04-05T18:01:32.104Z,76.12
2023-04-05T18:03:59.781Z,76.06
2023-04-05T18:06:27.616Z,76.07
2023-04-05T18:08:54.826Z,76.24
2023-04-05T18:11:21.982Z,76.09
2023-04-05T18:13:49.011Z,76.31
2023-04-05T18:16:16.160Z,76.41
2023-04-05T18:18:43.062Z,76.49
2023-04-05T18:21:10.256Z,76.38
2023-04-05T18:23:37.083Z,76.73
2023-04-05T18:26:08.044Z,76.66
2023-04-05T18:28:36.775Z,76.97
2023-04-05T18:31:03.790Z,77.02
2023-04-05T18:33:31.373Z,77.31
2023-04-05T18:35:58.488Z,77.40
2023-04-05T18:38:26.591Z,77.06
2023-04-05T18:41:02.013Z,77.23
2023-04-05T18:43:29.871Z,77.16
2023-04-05T18:45:57.226Z,77.21
2023-04-05T18:48:25.231Z,77.06
2023-04-05T18:50:54.089Z,76.75
2023-04-05T18:53:22.390Z,76.93
2023-04-05T18:55:53.553Z,76.79
2023-04-05T18:58:20.965Z,77.01
2023-04-05T19:00:47.993Z,77.01
2023-04-05T19:03:16.359Z,77.13
2023-04-05T19:05:49.594Z,76.81
2023-04-05T19:08:18.880Z,77.05
2023-04-05T19:10:45.938Z,77.26
2023-04-05T19:13:13.444Z,77.01
2023-04-05T19:15:40.724Z,76.94
2023-04-05T19:18:08.059Z,76.81
2023-04-05T19:20:35.143Z,77.20
2023-04-05T19:23:02.266Z,77.17
2023-04-05T19:25:29.302Z,77.35
2023-04-05T19:27:56.569Z,77.44
2023-04-05T19:30:23.915Z,77.46
2023-04-05T19:32:53.850Z,77.56
2023-04-05T19:35:21.016Z,77.52
2023-04-05T19:40:32.710Z,77.48
2023-04-05T19:43:01.970Z,77.70
2023-04-05T19:45:30.592Z,77.73
2023-04-05T19:47:59.958Z,77.80
2023-04-05T19:50:40.608Z,77.98
2023-04-05T19:53:08.211Z,78.11
2023-04-05T19:55:37.963Z,78.47
2023-04-05T19:58:10.485Z,78.76
2023-04-05T20:00:47.119Z,78.90
2023-04-05T20:03:27.606Z,79.47
2023-04-05T20:06:05.211Z,79.83
2023-04-05T20:08:34.638Z,79.65
2023-04-05T20:11:05.388Z,79.89
2023-04-05T20:13:34.293Z,80.40
2023-04-05T20:16:01.289Z,80.39
2023-04-05T20:18:29.135Z,80.92
2023-04-05T20:20:56.925Z,80.95
2023-04-05T20:23:27.350Z,81.07
2023-04-05T20:25:54.723Z,81.33
2023-04-05T20:28:34.629Z,81.22
2023-04-05T20:31:02.757Z,81.25
2023-04-05T20:33:48.125Z,80.82
2023-04-05T20:36:36.023Z,80.91
2023-04-05T20:39:06.852Z,80.38
2023-04-05T20:41:34.163Z,80.44
2023-04-05T20:44:01.254Z,80.16
2023-04-05T20:46:28.696Z,80.43
2023-04-05T20:48:58.171Z,80.40
2023-04-05T20:51:25.927Z,80.55
2023-04-05T20:53:53.605Z,80.85
2023-04-05T20:56:20.973Z,81.20
2023-04-05T20:58:48.056Z,80.57
2023-04-05T21:01:15.773Z,80.85
2023-04-05T21:03:43.143Z,81.14
2023-04-05T21:06:11.899Z,81.31
2023-04-05T21:08:41.478Z,80.84
2023-04-05T21:11:10.753Z,80.88
2023-04-05T21:13:39.767Z,80.83
2023-04-05T21:16:07.373Z,80.57
2023-04-05T21:18:34.612Z,80.55
2023-04-05T21:21:01.527Z,80.29
2023-04-05T21:23:29.308Z,80.34
2023-04-05T21:25:57.617Z,80.39
2023-04-05T21:28:26.164Z,80.34
2023-04-05T21:30:53.612Z,79.01
2023-04-05T21:33:20.915Z,78.63
2023-04-05T21:35:48.350Z,77.66
2023-04-05T21:38:15.930Z,77.40
2023-04-05T21:40:44.716Z,77.26
2023-04-05T21:43:13.276Z,76.78
2023-04-05T21:45:40.438Z,76.43
2023-04-05T21:48:07.917Z,76.39
2023-04-05T21:50:35.127Z,76.18
2023-04-05T21:53:04.071Z,76.00
2023-04-05T21:55:31.161Z,75.62
2023-04-05T21:57:58.318Z,75.46
2023-04-05T22:00:25.331Z,75.22
2023-04-05T22:02:52.409Z,75.00
2023-04-05T22:05:33.981Z,74.38
2023-04-05T22:08:04.062Z,73.97
2023-04-05T22:10:31.182Z,73.71
2023-04-05T22:12:58.544Z,73.73
2023-04-05T22:15:25.852Z,73.45
2023-04-05T22:17:53.001Z,73.30
2023-04-05T22:20:20.178Z,72.66
2023-04-05T22:22:47.833Z,72.73
2023-04-05T22:25:14.986Z,72.35
2023-04-05T22:27:42.009Z,72.47
2023-04-05T22:30:09.524Z,72.66
2023-04-05T22:32:36.877Z,72.89
2023-04-05T22:35:04.485Z,72.77
2023-04-05T22:37:36.639Z,73.14
2023-04-05T22:40:04.825Z,73.56
2023-04-05T22:42:32.198Z,73.97
2023-04-05T22:44:59.534Z,74.00
2023-04-05T22:47:27.442Z,74.15
2023-04-05T22:49:54.863Z,74.42
2023-04-05T22:52:22.343Z,74.42
2023-04-05T22:54:49.232Z,74.66
2023-04-05T22:57:16.525Z,74.79
2023-04-05T22:59:43.612Z,74.68
2023-04-05T23:02:12.610Z,74.79
2023-04-05T23:04:39.887Z,74.56
2023-04-05T23:07:06.930Z,74.60
2023-04-05T23:09:34.440Z,74.57
2023-04-05T23:12:01.653Z,74.10
2023-04-05T23:14:31.432Z,74.62
2023-04-05T23:16:58.448Z,75.16
2023-04-05T23:19:25.644Z,75.20
2023-04-05T23:21:55.807Z,75.77
2023-04-05T23:24:22.905Z,76.18
2023-04-05T23:26:50.110Z,76.51
2023-04-05T23:29:18.711Z,76.60
2023-04-05T23:31:46.097Z,76.63
2023-04-05T23:34:13.176Z,77.15
2023-04-05T23:36:40.524Z,76.86
2023-04-05T23:39:07.943Z,76.15
2023-04-05T23:41:35.058Z,75.35
2023-04-05T23:44:02.092Z,74.85
2023-04-05T23:46:29.118Z,74.49
2023-04-05T23:48:56.349Z,74.41
2023-04-05T23:51:23.671Z,74.51
2023-04-05T23:53:51.612Z,74.42
2023-04-05T23:56:18.719Z,74.40
2023-04-05T23:58:46.144Z,74.21
